createdAt,value
2023-01-08T00:00:17.562Z,-22.53
2023-01-08T00:02:45.094Z,-22.64
2023-01-08T00:05:12.417Z,-22.67
2023-01-08T00:07:39.843Z,-22.39
2023-01-08T00:10:07.954Z,-22.60
2023-01-08T00:12:35.608Z,-22.58
2023-01-08T00:15:03.168Z,-22.77
2023-01-08T00:17:31.086Z,-22.90
2023-01-08T00:19:58.693Z,-22.63
2023-01-08T00:22:26.248Z,-22.72
2023-01-08T00:24:53.550Z,-22.88
2023-01-08T00:27:21.281Z,-22.78
2023-01-08T00:29:48.833Z,-22.69
2023-01-08T00:32:16.263Z,-22.60
2023-01-08T00:35:21.394Z,-22.51
2023-01-08T00:37:52.344Z,-22.68
2023-01-08T00:40:20.174Z,-22.74
2023-01-08T00:42:48.001Z,-22.93
2023-01-08T00:45:15.642Z,-22.82
2023-01-08T00:47:43.112Z,-22.74
2023-01-08T00:50:11.996Z,-22.64
2023-01-08T00:52:39.458Z,-22.48
2023-01-08T00:55:07.858Z,-22.64
2023-01-08T00:57:36.051Z,-22.80
2023-01-08T01:00:05.770Z,-22.89
2023-01-08T01:02:34.803Z,-22.88
2023-01-08T01:05:02.229Z,-22.86
2023-01-08T01:07:29.711Z,-22.74
2023-01-08T01:10:04.051Z,-22.92
2023-01-08T01:12:31.650Z,-22.74
2023-01-08T01:14:59.075Z,-23.02
2023-01-08T01:17:26.961Z,-22.66
2023-01-08T01:19:54.394Z,-22.72
2023-01-08T01:22:21.909Z,-22.70
2023-01-08T01:24:49.343Z,-22.48
2023-01-08T01:27:16.744Z,-22.52
2023-01-08T01:30:15.553Z,-22.50
2023-01-08T01:32:43.093Z,-22.43
2023-01-08T01:35:10.919Z,-22.16
2023-01-08T01:37:38.678Z,-22.39
2023-01-08T01:40:06.530Z,-22.41
2023-01-08T01:42:44.492Z,-22.32
2023-01-08T01:45:24.263Z,-22.26
2023-01-08T01:48:02.670Z,-22.23
2023-01-08T01:50:36.548Z,-22.27
2023-01-08T01:53:10.004Z,-22.55
2023-01-08T01:55:40.773Z,-22.48
2023-01-08T01:58:30.116Z,-22.36
2023-01-08T02:01:00.415Z,-22.39
2023-01-08T02:03:33.312Z,-22.35
2023-01-08T02:06:16.003Z,-22.17
2023-01-08T02:09:11.793Z,-22.23
2023-01-08T02:12:10.176Z,-22.18
2023-01-08T02:14:52.898Z,-22.10
2023-01-08T02:17:49.611Z,-22.21
2023-01-08T02:20:46.832Z,-22.20
2023-01-08T02:23:33.633Z,-22.05
2023-01-08T02:26:11.127Z,-22.02
2023-01-08T02:28:44.369Z,-22.00
2023-01-08T02:31:13.694Z,-22.12
2023-01-08T02:33:41.543Z,-21.86
2023-01-08T02:36:12.273Z,-21.85
2023-01-08T02:38:51.247Z,-21.76
2023-01-08T02:41:24.667Z,-21.69
2023-01-08T02:43:56.135Z,-22.07
2023-01-08T02:46:31.118Z,-22.20
2023-01-08T02:49:10.633Z,-21.97
2023-01-08T02:51:46.144Z,-21.81
2023-01-08T02:54:20.057Z,-21.53
2023-01-08T02:56:52.880Z,-21.23
2023-01-08T02:59:23.362Z,-20.98
2023-01-08T03:01:51.077Z,-21.07
2023-01-08T03:04:22.678Z,-21.25
2023-01-08T03:06:51.011Z,-21.06
2023-01-08T03:09:19.505Z,-21.15
2023-01-08T03:11:58.842Z,-20.71
2023-01-08T03:14:33.283Z,-20.71
2023-01-08T03:17:18.798Z,-20.99
2023-01-08T03:19:54.928Z,-21.01
2023-01-08T03:22:23.333Z,-21.07
2023-01-08T03:24:54.810Z,-20.66
2023-01-08T03:27:26.924Z,-21.10
2023-01-08T03:29:58.468Z,-20.81
2023-01-08T03:32:29.381Z,-20.66
2023-01-08T03:34:59.110Z,-20.82
2023-01-08T03:37:36.285Z,-20.77
2023-01-08T03:40:07.151Z,-20.60
2023-01-08T03:42:34.956Z,-20.82
2023-01-08T03:45:03.272Z,-20.72
2023-01-08T03:47:33.550Z,-20.64
2023-01-08T03:50:08.759Z,-20.76
2023-01-08T03:52:37.070Z,-20.48
2023-01-08T03:55:04.945Z,-20.46
2023-01-08T03:57:32.333Z,-20.59
2023-01-08T03:59:59.644Z,-20.50
2023-01-08T04:02:27.022Z,-20.33
2023-01-08T04:04:55.032Z,-20.29
2023-01-08T04:07:22.905Z,-19.95
2023-01-08T04:09:50.309Z,-19.76
2023-01-08T04:12:18.195Z,-19.78
2023-01-08T04:14:45.795Z,-20.03
2023-01-08T04:17:13.975Z,-20.05
2023-01-08T04:19:42.108Z,-20.19
2023-01-08T04:22:12.906Z,-20.20
2023-01-08T04:24:40.507Z,-20.35
2023-01-08T04:27:07.751Z,-20.07
2023-01-08T04:29:34.855Z,-20.23
2023-01-08T04:32:04.441Z,-20.30
2023-01-08T04:34:31.714Z,-20.08
2023-01-08T04:36:59.585Z,-19.92
2023-01-08T04:39:26.753Z,-19.99
2023-01-08T04:41:53.872Z,-19.83
2023-01-08T04:44:20.965Z,-19.92
2023-01-08T04:46:48.125Z,-19.75
2023-01-08T04:49:15.517Z,-19.53
2023-01-08T04:51:42.748Z,-19.65
2023-01-08T04:54:10.047Z,-19.50
2023-01-08T04:56:37.217Z,-19.04
2023-01-08T04:59:04.486Z,-19.00
2023-01-08T05:01:31.971Z,-18.96
2023-01-08T05:04:02.026Z,-19.21
2023-01-08T05:06:30.657Z,-19.38
2023-01-08T05:08:58.458Z,-19.40
2023-01-08T05:11:26.097Z,-19.12
2023-01-08T05:13:54.079Z,-19.15
2023-01-08T05:16:21.652Z,-19.36
2023-01-08T05:18:49.005Z,-19.28
2023-01-08T05:21:17.267Z,-19.01
2023-01-08T05:23:48.408Z,-18.77
2023-01-08T05:26:17.072Z,-18.78
2023-01-08T05:28:44.567Z,-18.72
2023-01-08T05:31:12.073Z,-18.74
2023-01-08T05:34:27.296Z,-19.21
2023-01-08T05:36:54.733Z,-19.24
2023-01-08T05:39:22.670Z,-19.27
2023-01-08T05:41:49.857Z,-19.23
2023-01-08T05:44:16.945Z,-19.25
2023-01-08T05:46:44.228Z,-19.12
2023-01-08T05:49:11.445Z,-18.91
2023-01-08T05:51:38.564Z,-19.14
2023-01-08T05:54:05.716Z,-19.25
2023-01-08T05:56:32.813Z,-19.08
2023-01-08T05:58:59.985Z,-19.06
2023-01-08T06:01:27.282Z,-18.91
2023-01-08T06:03:57.190Z,-18.69
2023-01-08T06:06:24.376Z,-18.65
2023-01-08T06:08:51.509Z,-18.58
2023-01-08T06:11:18.720Z,-18.53
2023-01-08T06:13:45.927Z,-18.54
2023-01-08T06:16:13.794Z,-18.59
2023-01-08T06:18:43.838Z,-18.27
2023-01-08T06:21:12.625Z,-18.26
2023-01-08T06:23:40.587Z,-18.43
2023-01-08T06:26:08.065Z,-18.73
2023-01-08T06:28:35.943Z,-18.68
2023-01-08T06:31:04.012Z,-18.56
2023-01-08T06:33:32.117Z,-18.64
2023-01-08T06:36:04.651Z,-18.40
2023-01-08T06:38:34.102Z,-18.44
2023-01-08T06:41:09.849Z,-18.44
2023-01-08T06:43:38.279Z,-18.53
2023-01-08T06:46:07.080Z,-18.72
2023-01-08T06:48:34.382Z,-18.89
2023-01-08T06:51:03.286Z,-18.64
2023-01-08T06:53:33.587Z,-18.50
2023-01-08T06:56:00.808Z,-18.33
2023-01-08T06:58:31.874Z,-18.27
2023-01-08T07:01:46.164Z,-18.19
2023-01-08T07:04:13.311Z,-18.14
2023-01-08T07:06:40.520Z,-18.09
2023-01-08T07:09:07.771Z,-17.94
2023-01-08T07:11:34.925Z,-17.78
2023-01-08T07:14:02.038Z,-17.63
2023-01-08T07:16:29.094Z,-17.99
2023-01-08T07:18:56.285Z,-18.12
2023-01-08T07:21:23.679Z,-18.03
2023-01-08T07:23:50.992Z,-18.01
2023-01-08T07:26:18.339Z,-17.84
2023-01-08T07:28:45.779Z,-17.87
2023-01-08T07:31:13.042Z,-17.91
2023-01-08T07:33:40.148Z,-17.72
2023-01-08T07:36:07.893Z,-17.57
2023-01-08T07:38:35.157Z,-17.25
2023-01-08T07:41:02.741Z,-17.22
2023-01-08T07:43:30.450Z,-16.82
2023-01-08T07:45:58.380Z,-16.62
2023-01-08T07:48:25.814Z,-16.57
2023-01-08T07:50:53.241Z,-16.31
2023-01-08T07:53:20.766Z,-16.14
2023-01-08T07:55:48.339Z,-15.70
2023-01-08T07:58:15.698Z,-15.51
2023-01-08T08:00:43.056Z,-15.01
2023-01-08T08:03:18.358Z,-14.54
2023-01-08T08:05:45.785Z,-14.11
2023-01-08T08:08:13.982Z,-13.77
2023-01-08T08:10:43.251Z,-13.50
2023-01-08T08:13:11.895Z,-13.17
2023-01-08T08:15:41.687Z,-11.87
2023-01-08T08:18:09.103Z,-11.40
2023-01-08T08:20:41.993Z,-11.47
2023-01-08T08:23:14.254Z,-10.71
2023-01-08T08:25:52.723Z,-9.77
2023-01-08T08:28:24.195Z,-8.38
2023-01-08T08:30:52.277Z,-7.17
2023-01-08T08:33:20.180Z,-6.88
2023-01-08T08:35:55.011Z,-6.37
2023-01-08T08:38:24.041Z,-5.60
2023-01-08T08:40:52.380Z,-5.07
2023-01-08T08:43:37.276Z,-5.89
2023-01-08T08:54:56.173Z,-6.35
2023-01-08T09:00:11.693Z,-4.39
2023-01-08T10:07:31.591Z,-14.33
2023-01-08T10:09:58.867Z,-11.98
2023-01-08T10:12:34.055Z,-9.58
2023-01-08T10:15:05.150Z,-9.09
2023-01-08T10:17:39.237Z,-9.59
2023-01-08T10:20:15.516Z,-10.50
2023-01-08T10:22:43.400Z,-10.48
2023-01-08T10:25:18.915Z,-12.05
2023-01-08T10:27:59.544Z,-10.25
2023-01-08T10:30:35.207Z,-9.19
2023-01-08T10:33:16.614Z,-8.08
2023-01-08T10:35:50.803Z,-7.57
2023-01-08T10:38:42.216Z,-7.29
2023-01-08T10:41:15.321Z,-6.90
2023-01-08T10:43:58.897Z,-8.62
2023-01-08T10:46:31.338Z,-7.77
2023-01-08T10:49:01.764Z,-8.46
2023-01-08T10:51:31.433Z,-9.11
2023-01-08T10:54:02.181Z,-9.04
2023-01-08T10:56:32.410Z,-7.97
2023-01-08T10:59:00.486Z,-7.94
2023-01-08T11:01:32.758Z,-7.69
2023-01-08T11:04:02.102Z,-8.77
2023-01-08T11:06:32.846Z,-8.79
2023-01-08T11:09:02.404Z,-8.63
2023-01-08T11:11:37.972Z,-8.70
2023-01-08T11:14:30.486Z,-7.94
2023-01-08T11:16:58.904Z,-8.45
2023-01-08T11:19:30.035Z,-8.64
2023-01-08T11:21:59.914Z,-9.37
2023-01-08T11:24:38.474Z,-9.55
2023-01-08T11:27:08.738Z,-9.50
2023-01-08T11:29:57.249Z,-9.60
2023-01-08T11:32:40.870Z,-9.79
2023-01-08T11:35:28.892Z,-9.96
2023-01-08T11:38:02.143Z,-9.06
2023-01-08T11:40:34.204Z,-8.63
2023-01-08T11:43:14.942Z,-9.01
2023-01-08T11:46:07.891Z,-10.38
2023-01-08T11:48:59.443Z,-10.89
2023-01-08T11:51:54.542Z,-11.71
2023-01-08T11:54:34.421Z,-12.78
2023-01-08T11:57:27.058Z,-14.84
2023-01-08T12:00:27.611Z,-16.93
2023-01-08T12:02:58.360Z,-17.94
2023-01-08T12:05:54.797Z,-18.48
2023-01-08T12:08:46.192Z,-18.93
2023-01-08T12:11:33.598Z,-19.18
2023-01-08T12:14:40.118Z,-19.46
2023-01-08T12:17:34.909Z,-19.48
2023-01-08T12:20:27.787Z,-19.31
2023-01-08T12:23:15.074Z,-19.39
2023-01-08T12:26:10.335Z,-19.60
2023-01-08T12:28:56.169Z,-19.81
2023-01-08T12:32:01.916Z,-19.64
2023-01-08T12:34:56.564Z,-19.62
2023-01-08T12:37:29.196Z,-19.82
2023-01-08T12:40:19.620Z,-19.95
2023-01-08T12:42:53.453Z,-19.93
2023-01-08T12:45:29.771Z,-20.09
2023-01-08T12:48:06.320Z,-19.86
2023-01-08T12:50:39.304Z,-19.88
2023-01-08T12:53:22.248Z,-20.10
2023-01-08T12:56:16.260Z,-20.09
2023-01-08T12:58:46.484Z,-19.79
2023-01-08T13:01:52.720Z,-19.72
2023-01-08T13:04:20.743Z,-19.73
2023-01-08T13:07:05.266Z,-19.60
2023-01-08T13:09:33.332Z,-19.92
2023-01-08T13:12:01.338Z,-20.33
2023-01-08T13:14:31.138Z,-20.47
2023-01-08T13:17:08.583Z,-20.74
2023-01-08T13:19:44.041Z,-20.81
2023-01-08T13:22:33.516Z,-20.81
2023-01-08T13:25:15.789Z,-20.72
2023-01-08T13:27:44.041Z,-20.89
2023-01-08T13:30:40.110Z,-21.04
2023-01-08T13:33:39.976Z,-21.01
2023-01-08T13:36:21.242Z,-21.02
2023-01-08T13:39:03.953Z,-20.85
2023-01-08T13:41:32.706Z,-20.99
2023-01-08T13:44:05.471Z,-20.96
2023-01-08T13:46:36.719Z,-21.10
2023-01-08T13:49:28.393Z,-21.22
2023-01-08T13:51:55.593Z,-21.26
2023-01-08T13:54:35.697Z,-21.40
2023-01-08T13:57:06.547Z,-21.27
2023-01-08T13:59:43.143Z,-21.10
2023-01-08T14:02:31.436Z,-20.98
2023-01-08T14:05:03.403Z,-21.05
2023-01-08T14:07:30.968Z,-21.01
2023-01-08T14:10:08.465Z,-21.11
2023-01-08T14:12:36.220Z,-20.88
2023-01-08T14:15:06.865Z,-21.23
2023-01-08T14:17:34.237Z,-21.25
2023-01-08T14:20:01.887Z,-21.29
2023-01-08T14:22:33.970Z,-20.93
2023-01-08T14:25:06.631Z,-20.80
2023-01-08T14:27:35.804Z,-20.98
2023-01-08T14:30:17.306Z,-20.92
2023-01-08T14:32:45.553Z,-20.99
2023-01-08T14:35:19.788Z,-20.82
2023-01-08T14:37:46.978Z,-20.92
2023-01-08T14:40:15.922Z,-20.93
2023-01-08T14:42:53.718Z,-21.04
2023-01-08T14:45:24.375Z,-21.08
2023-01-08T14:47:54.241Z,-21.22
2023-01-08T14:50:27.551Z,-21.30
2023-01-08T14:53:17.995Z,-21.05
2023-01-08T14:55:48.823Z,-21.08
2023-01-08T14:58:20.569Z,-21.01
2023-01-08T15:00:53.269Z,-21.12
2023-01-08T15:03:31.292Z,-21.32
2023-01-08T15:05:58.673Z,-21.14
2023-01-08T15:08:34.584Z,-21.12
2023-01-08T15:11:01.752Z,-21.13
2023-01-08T15:13:38.920Z,-21.09
2023-01-08T15:16:12.589Z,-21.14
2023-01-08T15:19:07.824Z,-21.35
2023-01-08T15:21:35.850Z,-21.45
2023-01-08T15:24:05.078Z,-21.57
2023-01-08T15:26:33.044Z,-21.47
2023-01-08T15:29:06.422Z,-21.35
2023-01-08T15:31:47.495Z,-21.34
2023-01-08T15:34:46.000Z,-21.49
2023-01-08T15:37:16.749Z,-21.83
2023-01-08T15:39:44.692Z,-21.98
2023-01-08T15:42:43.203Z,-21.90
2023-01-08T15:45:16.301Z,-22.00
2023-01-08T15:47:44.188Z,-21.91
2023-01-08T15:50:11.978Z,-22.17
2023-01-08T15:52:42.056Z,-22.42
2023-01-08T15:55:24.630Z,-22.17
2023-01-08T15:57:53.237Z,-22.22
2023-01-08T16:00:22.865Z,-22.36
2023-01-08T16:02:51.961Z,-22.44
2023-01-08T16:05:21.240Z,-22.19
2023-01-08T16:07:50.484Z,-22.29
2023-01-08T16:10:18.504Z,-22.47
2023-01-08T16:12:47.726Z,-22.57
2023-01-08T16:15:16.105Z,-22.48
2023-01-08T16:17:44.037Z,-22.33
2023-01-08T16:20:12.858Z,-21.97
2023-01-08T16:22:41.120Z,-21.82
2023-01-08T16:25:09.770Z,-21.80
2023-01-08T16:27:38.638Z,-21.63
2023-01-08T16:30:08.244Z,-21.59
2023-01-08T16:32:35.724Z,-21.55
2023-01-08T16:35:03.699Z,-21.45
2023-01-08T16:37:31.397Z,-21.47
2023-01-08T16:39:59.081Z,-21.61
2023-01-08T16:42:26.723Z,-21.37
2023-01-08T16:44:53.992Z,-21.42
2023-01-08T16:47:21.487Z,-21.41
2023-01-08T16:49:50.818Z,-21.24
2023-01-08T16:52:18.498Z,-21.15
2023-01-08T16:54:47.010Z,-21.01
2023-01-08T16:57:14.415Z,-21.01
2023-01-08T16:59:41.995Z,-20.96
2023-01-08T17:02:12.695Z,-21.08
2023-01-08T17:04:40.193Z,-21.17
2023-01-08T17:07:07.701Z,-21.05
2023-01-08T17:09:35.059Z,-21.00
2023-01-08T17:12:02.802Z,-21.14
2023-01-08T17:14:31.554Z,-21.26
2023-01-08T17:16:59.211Z,-21.08
2023-01-08T17:19:26.483Z,-21.10
2023-01-08T17:21:53.822Z,-20.99
2023-01-08T17:24:21.260Z,-20.95
2023-01-08T17:26:48.701Z,-21.01
2023-01-08T17:29:16.063Z,-21.07
2023-01-08T17:31:43.762Z,-21.06
2023-01-08T17:34:14.834Z,-21.05
2023-01-08T17:36:42.968Z,-21.01
2023-01-08T17:39:13.501Z,-20.98
2023-01-08T17:41:59.583Z,-20.89
2023-01-08T17:44:27.375Z,-20.81
2023-01-08T17:46:55.103Z,-20.86
2023-01-08T17:49:22.628Z,-20.78
2023-01-08T17:51:50.642Z,-20.85
2023-01-08T17:54:19.182Z,-20.96
2023-01-08T17:56:49.651Z,-20.95
2023-01-08T17:59:18.899Z,-21.02
2023-01-08T18:01:48.209Z,-21.18
2023-01-08T18:04:16.322Z,-20.98
2023-01-08T18:06:45.377Z,-21.02
2023-01-08T18:09:13.405Z,-21.11
2023-01-08T18:11:42.571Z,-21.22
2023-01-08T18:14:13.715Z,-21.32
2023-01-08T18:17:33.597Z,-21.12
2023-01-08T18:32:30.845Z,-20.94
2023-01-08T18:34:59.260Z,-21.03
2023-01-08T18:37:27.074Z,-20.94
2023-01-08T18:39:54.635Z,-21.10
2023-01-08T18:42:27.704Z,-21.14
2023-01-08T18:44:56.267Z,-20.94
2023-01-08T18:47:25.649Z,-21.24
2023-01-08T18:49:55.124Z,-21.23
2023-01-08T18:52:23.106Z,-21.25
2023-01-08T18:54:50.648Z,-21.14
2023-01-08T18:57:17.851Z,-21.31
2023-01-08T18:59:45.783Z,-21.21
2023-01-08T19:02:36.312Z,-21.03
2023-01-08T19:05:04.196Z,-21.05
2023-01-08T19:07:31.954Z,-21.07
2023-01-08T19:09:59.242Z,-21.26
2023-01-08T19:12:27.827Z,-21.08
2023-01-08T19:14:55.247Z,-21.32
2023-01-08T19:17:22.541Z,-21.47
2023-01-08T19:19:50.005Z,-21.24
2023-01-08T19:22:17.936Z,-21.39
2023-01-08T19:24:45.162Z,-21.40
2023-01-08T19:27:13.092Z,-21.36
2023-01-08T19:29:42.494Z,-21.37
2023-01-08T19:32:09.950Z,-21.19
2023-01-08T19:34:37.592Z,-21.04
2023-01-08T19:37:05.182Z,-20.94
2023-01-08T19:39:32.489Z,-20.83
2023-01-08T19:42:18.890Z,-20.82
2023-01-08T19:44:48.048Z,-20.94
2023-01-08T19:47:16.008Z,-21.04
2023-01-08T19:49:47.909Z,-21.11
2023-01-08T19:52:16.670Z,-21.45
2023-01-08T19:54:44.160Z,-21.42
2023-01-08T19:57:11.469Z,-21.30
2023-01-08T19:59:38.735Z,-21.15
2023-01-08T20:02:06.199Z,-20.96
2023-01-08T20:04:37.075Z,-20.80
2023-01-08T20:07:04.397Z,-20.65
2023-01-08T20:09:33.133Z,-20.66
2023-01-08T20:12:00.414Z,-20.60
2023-01-08T20:14:27.692Z,-20.53
2023-01-08T20:29:43.765Z,-20.54
2023-01-08T20:32:11.192Z,-20.54
2023-01-08T20:48:22.934Z,-20.72
2023-01-08T20:51:00.225Z,-21.02
2023-01-08T20:53:37.696Z,-21.15
2023-01-08T20:56:07.109Z,-20.96
2023-01-08T20:58:36.309Z,-20.88
2023-01-08T21:01:16.663Z,-21.12
2023-01-08T21:03:45.680Z,-21.33
2023-01-08T21:06:18.522Z,-21.57
2023-01-08T21:08:48.263Z,-21.72
2023-01-08T21:11:16.681Z,-21.41
2023-01-08T21:13:47.178Z,-21.38
2023-01-08T21:16:17.651Z,-21.30
2023-01-08T21:18:47.728Z,-21.57
2023-01-08T21:21:34.914Z,-21.45
2023-01-08T21:24:05.109Z,-21.49
2023-01-08T21:26:37.228Z,-21.60
2023-01-08T21:29:06.624Z,-21.56
2023-01-08T21:31:34.635Z,-21.84
2023-01-08T21:34:03.177Z,-22.27
2023-01-08T21:36:32.087Z,-22.45
2023-01-08T21:39:01.236Z,-22.49
2023-01-08T21:41:48.590Z,-21.99
2023-01-08T21:44:37.382Z,-21.77
2023-01-08T21:47:07.149Z,-21.69
2023-01-08T21:49:36.234Z,-21.36
2023-01-08T21:52:24.578Z,-21.31
2023-01-08T21:54:52.787Z,-21.58
2023-01-08T21:57:20.459Z,-21.50
2023-01-08T21:59:51.445Z,-21.72
2023-01-08T22:02:21.118Z,-21.87
2023-01-08T22:04:48.756Z,-21.96
2023-01-08T22:07:16.206Z,-21.73
2023-01-08T22:09:43.440Z,-21.59
2023-01-08T22:12:10.893Z,-21.39
2023-01-08T22:14:38.203Z,-21.25
2023-01-08T22:20:32.375Z,-21.11
2023-01-08T22:22:59.535Z,-21.17
2023-01-08T22:25:26.980Z,-21.26
2023-01-08T22:27:55.681Z,-21.12
2023-01-08T22:30:23.585Z,-21.11
2023-01-08T22:32:50.744Z,-21.27
2023-01-08T22:35:17.897Z,-21.22
2023-01-08T22:37:47.314Z,-21.34
2023-01-08T22:40:14.585Z,-21.32
2023-01-08T22:42:41.772Z,-21.52
2023-01-08T22:45:09.509Z,-21.76
2023-01-08T22:47:36.674Z,-22.23
2023-01-08T22:50:04.377Z,-22.28
2023-01-08T22:52:31.438Z,-22.39
2023-01-08T22:54:59.595Z,-22.27
2023-01-08T22:57:26.765Z,-22.61
2023-01-08T22:59:54.175Z,-22.54
2023-01-08T23:02:24.712Z,-23.01
2023-01-08T23:04:52.321Z,-23.18
2023-01-08T23:07:20.910Z,-23.14
2023-01-08T23:09:48.394Z,-23.14
2023-01-08T23:12:15.622Z,-23.05
2023-01-08T23:14:43.508Z,-22.91
2023-01-08T23:17:10.863Z,-22.66
2023-01-08T23:19:38.311Z,-22.42
2023-01-08T23:22:05.899Z,-22.28
2023-01-08T23:24:33.111Z,-22.09
2023-01-08T23:27:00.642Z,-22.04
2023-01-08T23:29:29.788Z,-22.18
2023-01-08T23:32:00.680Z,-22.17
2023-01-08T23:34:27.865Z,-22.17
2023-01-08T23:40:25.435Z,-21.90
2023-01-08T23:42:52.608Z,-21.90
2023-01-08T23:45:21.301Z,-21.96
2023-01-08T23:47:48.543Z,-21.91
2023-01-08T23:50:15.820Z,-21.92
2023-01-08T23:52:43.191Z,-21.85
2023-01-08T23:55:10.390Z,-22.05
2023-01-08T23:57:37.705Z,-21.98
